Time;durP1;ratioP1;P1;durP2;ratioP2;P2;SDS_P1;SDS_P2;PMS_P1;PMS_P2;Temp;Humidity;BMP_temperature;BMP_pressure;BME280_temperature;BME280_humidity;BME280_pressure;Samples;Min_cycle;Max_cycle;Signal;HPM_P1;HPM_P2
2021/05/27 00:01:26;;;;;;;4.80;1.60;;;10.20;99.90;;;;;;5050413;28;20756;-53
2021/05/27 00:03:52;;;;;;;3.90;1.30;;;10.30;99.90;;;;;;5050941;28;20405;-52
2021/05/27 00:06:17;;;;;;;4.80;1.50;;;10.30;99.90;;;;;;5050761;28;20389;-54
2021/05/27 00:08:43;;;;;;;4.20;1.73;;;10.20;99.90;;;;;;5052621;28;20385;-52
2021/05/27 00:11:09;;;;;;;4.60;1.63;;;10.30;99.90;;;;;;5051922;28;20405;-53
2021/05/27 00:13:34;;;;;;;5.63;1.80;;;10.30;99.90;;;;;;5051779;28;20386;-52
2021/05/27 00:16:00;;;;;;;5.43;1.90;;;10.30;99.90;;;;;;5052745;28;20396;-51
2021/05/27 00:18:26;;;;;;;4.20;1.63;;;10.30;99.90;;;;;;5050414;28;20883;-52
2021/05/27 00:20:52;;;;;;;5.07;1.57;;;10.30;99.90;;;;;;5050489;28;20400;-52
2021/05/27 00:23:18;;;;;;;4.50;1.70;;;10.30;99.90;;;;;;5050210;28;20389;-53
2021/05/27 00:25:43;;;;;;;5.70;1.70;;;10.30;99.90;;;;;;5052251;28;20386;-52
2021/05/27 00:28:09;;;;;;;6.53;2.00;;;10.30;99.90;;;;;;5052223;28;20373;-59
2021/05/27 00:30:35;;;;;;;5.40;2.10;;;10.30;99.90;;;;;;5051704;28;20790;-51
2021/05/27 00:33:00;;;;;;;5.27;2.00;;;10.30;99.90;;;;;;5052269;28;20412;-51
2021/05/27 00:35:26;;;;;;;5.13;2.00;;;10.30;99.90;;;;;;5050081;28;20398;-53
2021/05/27 00:37:52;;;;;;;4.80;1.80;;;10.20;99.90;;;;;;5052014;28;20380;-51
2021/05/27 00:40:18;;;;;;;5.00;1.60;;;10.20;99.90;;;;;;5050020;28;20393;-52
2021/05/27 00:42:44;;;;;;;5.10;1.80;;;10.20;99.90;;;;;;5052050;28;20407;-52
2021/05/27 00:45:13;;;;;;;5.00;1.60;;;10.30;99.90;;;;;;5051646;28;20417;-59
2021/05/27 00:47:40;;;;;;;4.28;1.90;;;10.20;99.90;;;;;;5051837;28;20393;-51
2021/05/27 00:50:08;;;;;;;5.50;1.90;;;10.10;99.90;;;;;;5052116;28;20382;-52
2021/05/27 00:52:34;;;;;;;5.35;1.80;;;10.20;99.90;;;;;;5051203;28;20882;-52
2021/05/27 00:55:02;;;;;;;4.53;1.70;;;10.20;99.90;;;;;;5051771;28;20870;-51
2021/05/27 00:57:36;;;;;;;4.45;1.80;;;10.10;99.90;;;;;;5051062;28;20382;-52
2021/05/27 01:00:08;;;;;;;4.55;1.73;;;10.10;99.90;;;;;;5051662;28;20886;-52
2021/05/27 01:02:33;;;;;;;4.33;1.70;;;10.20;99.90;;;;;;5050833;28;20653;-52
2021/05/27 01:04:59;;;;;;;4.22;1.70;;;10.20;99.90;;;;;;5050503;28;20999;-51
2021/05/27 01:07:25;;;;;;;5.00;1.80;;;10.10;99.90;;;;;;5050731;28;20916;-52
2021/05/27 01:09:51;;;;;;;4.80;1.90;;;9.70;99.90;;;;;;5051376;28;20396;-51
2021/05/27 01:12:17;;;;;;;4.38;1.92;;;10.10;99.90;;;;;;5050764;28;20381;-51
2021/05/27 01:17:37;;;;;;;4.50;1.80;;;10.10;99.90;;;;;;5041217;28;20398;-52
2021/05/27 01:20:06;;;;;;;5.50;1.90;;;10.10;99.90;;;;;;5051604;28;20488;-52
2021/05/27 01:22:32;;;;;;;4.87;1.70;;;10.20;99.90;;;;;;5050463;28;20934;-52
2021/05/27 01:24:58;;;;;;;4.50;1.88;;;10.20;99.90;;;;;;5050755;28;20434;-52
2021/05/27 01:27:23;;;;;;;5.22;1.90;;;10.20;99.90;;;;;;5050582;28;20378;-53
2021/05/27 01:29:53;;;;;;;4.93;2.20;;;10.20;99.90;;;;;;5051264;28;20370;-52
2021/05/27 01:32:19;;;;;;;4.75;2.10;;;10.20;99.90;;;;;;5050269;28;20393;-51
2021/05/27 01:34:47;;;;;;;6.00;1.90;;;10.10;99.90;;;;;;5051237;28;20844;-51
2021/05/27 01:37:13;;;;;;;4.35;1.90;;;10.10;99.90;;;;;;5050592;28;20389;-58
2021/05/27 01:39:42;;;;;;;4.30;2.10;;;10.20;99.90;;;;;;5050389;28;20609;-51
2021/05/27 01:42:08;;;;;;;5.70;2.15;;;10.30;99.90;;;;;;5050779;28;20405;-52
2021/05/27 01:44:34;;;;;;;4.33;2.17;;;10.30;99.90;;;;;;5050070;28;20389;-51
2021/05/27 01:46:59;;;;;;;4.30;1.80;;;10.30;99.90;;;;;;5050501;28;20377;-51
2021/05/27 01:49:25;;;;;;;5.33;2.20;;;10.30;99.90;;;;;;5049750;28;20405;-52
2021/05/27 01:51:51;;;;;;;4.85;2.03;;;10.40;99.90;;;;;;5050482;28;20397;-51
2021/05/27 01:54:17;;;;;;;6.72;2.22;;;10.40;99.90;;;;;;5049831;28;20900;-52
2021/05/27 01:56:43;;;;;;;5.63;2.10;;;10.40;99.90;;;;;;5050750;28;20420;-51
2021/05/27 01:59:09;;;;;;;5.68;2.10;;;10.50;99.90;;;;;;5050661;28;20390;-51
2021/05/27 02:01:35;;;;;;;7.63;2.40;;;10.50;99.90;;;;;;5049510;28;21273;-51
2021/05/27 02:04:01;;;;;;;5.47;2.28;;;10.40;99.90;;;;;;5050655;28;20396;-51
2021/05/27 02:06:26;;;;;;;5.70;2.30;;;10.40;99.90;;;;;;5049843;28;20384;-52
2021/05/27 02:09:08;;;;;;;6.60;2.30;;;10.40;99.90;;;;;;5050257;28;20414;-53
2021/05/27 02:11:38;;;;;;;4.60;2.30;;;10.40;99.90;;;;;;5049831;28;20377;-53
2021/05/27 02:14:06;;;;;;;5.40;2.53;;;10.40;99.90;;;;;;5050587;28;20381;-50
2021/05/27 02:16:32;;;;;;;5.35;2.10;;;10.30;99.90;;;;;;5049133;28;20392;-51
2021/05/27 02:18:58;;;;;;;5.05;2.35;;;10.20;99.90;;;;;;5049773;28;20408;-51
2021/05/27 02:21:24;;;;;;;5.30;2.60;;;10.10;99.90;;;;;;5048741;28;20401;-51
2021/05/27 02:23:57;;;;;;;5.07;2.50;;;10.00;99.90;;;;;;5049919;28;20692;-51
2021/05/27 02:26:23;;;;;;;5.80;2.60;;;10.00;99.90;;;;;;5047809;28;20385;-53
2021/05/27 02:28:49;;;;;;;5.97;2.80;;;10.00;99.90;;;;;;5049803;28;20431;-56
2021/05/27 02:31:17;;;;;;;5.28;2.80;;;10.00;99.90;;;;;;5049791;28;20382;-57
2021/05/27 02:33:43;;;;;;;7.05;2.70;;;10.00;99.90;;;;;;5048783;28;20712;-52
2021/05/27 02:36:09;;;;;;;5.50;2.80;;;10.00;99.90;;;;;;5049072;28;20397;-51
2021/05/27 02:38:36;;;;;;;4.97;2.78;;;9.90;99.90;;;;;;5049206;28;20381;-51
2021/05/27 02:41:03;;;;;;;5.43;2.83;;;9.80;99.90;;;;;;5049896;28;20411;-51
2021/05/27 02:43:29;;;;;;;5.90;3.07;;;9.70;99.90;;;;;;5049114;28;20377;-51
2021/05/27 02:45:55;;;;;;;6.90;3.00;;;9.70;99.90;;;;;;5049979;28;20373;-51
2021/05/27 02:48:21;;;;;;;7.00;2.80;;;9.70;99.90;;;;;;5049012;28;20389;-51
2021/05/27 02:50:46;;;;;;;6.07;2.55;;;9.60;99.90;;;;;;5049827;28;20463;-51
2021/05/27 02:53:12;;;;;;;5.53;2.80;;;9.60;99.90;;;;;;5049986;28;20373;-51
2021/05/27 02:55:38;;;;;;;6.40;2.95;;;9.50;99.90;;;;;;5049079;28;20381;-51
2021/05/27 02:58:03;;;;;;;5.70;2.97;;;9.50;99.90;;;;;;5049900;28;20372;-51
2021/05/27 03:00:29;;;;;;;5.15;2.70;;;9.60;99.90;;;;;;5048989;28;20382;-51
2021/05/27 03:02:55;;;;;;;6.28;3.05;;;9.50;99.90;;;;;;5049878;28;20435;-51
2021/05/27 03:05:20;;;;;;;5.97;3.20;;;9.40;99.90;;;;;;5049360;28;20527;-51
2021/05/27 03:07:46;;;;;;;6.68;3.20;;;9.30;99.90;;;;;;5049637;28;20412;-51
2021/05/27 03:10:12;;;;;;;5.80;3.23;;;9.30;99.90;;;;;;5049843;28;20420;-52
2021/05/27 03:12:38;;;;;;;9.25;3.50;;;9.20;99.90;;;;;;5048976;28;20408;-51
2021/05/27 03:15:06;;;;;;;5.25;3.00;;;9.10;99.90;;;;;;5048634;28;20743;-51
2021/05/27 03:17:31;;;;;;;5.10;2.90;;;9.10;99.90;;;;;;5048395;28;20436;-51
2021/05/27 03:19:57;;;;;;;5.10;2.60;;;9.10;99.90;;;;;;5049887;28;20879;-51
2021/05/27 03:22:23;;;;;;;6.75;3.08;;;9.00;99.90;;;;;;5048615;28;20407;-53
2021/05/27 03:24:48;;;;;;;7.83;3.73;;;9.00;99.90;;;;;;5049257;28;20867;-51
2021/05/27 03:27:14;;;;;;;8.23;2.90;;;8.90;99.90;;;;;;5049308;28;20385;-59
2021/05/27 03:29:40;;;;;;;9.40;3.60;;;8.90;99.90;;;;;;5049222;28;20388;-51
2021/05/27 03:32:06;;;;;;;7.10;3.65;;;8.80;99.90;;;;;;5048244;28;20443;-51
2021/05/27 03:34:32;;;;;;;5.90;3.20;;;8.80;99.90;;;;;;5046090;28;20389;-51
2021/05/27 03:36:57;;;;;;;5.50;3.00;;;8.80;99.90;;;;;;5045856;28;20725;-50
2021/05/27 03:39:23;;;;;;;5.50;3.00;;;8.80;99.90;;;;;;5047294;28;20397;-52
2021/05/27 03:41:50;;;;;;;7.88;3.10;;;8.80;99.90;;;;;;5049874;28;20405;-51
2021/05/27 03:44:16;;;;;;;6.45;2.97;;;8.60;99.90;;;;;;5048834;28;20386;-59
2021/05/27 03:46:42;;;;;;;5.28;2.90;;;8.60;99.90;;;;;;5065421;28;20450;-52
2021/05/27 03:49:08;;;;;;;5.63;2.67;;;8.70;99.90;;;;;;5053406;28;20428;-51
2021/05/27 03:51:34;;;;;;;6.35;3.25;;;8.60;99.90;;;;;;5052066;28;21354;-52
2021/05/27 03:53:59;;;;;;;6.20;3.00;;;8.70;99.90;;;;;;5053114;28;20512;-52
2021/05/27 03:56:26;;;;;;;5.87;3.40;;;8.90;99.90;;;;;;5052430;28;20366;-53
2021/05/27 04:01:37;;;;;;;6.63;3.20;;;8.80;99.90;;;;;;5051944;28;20444;-52
2021/05/27 04:09:31;;;;;;;5.30;2.72;;;8.80;99.90;;;;;;5051771;28;20422;-52
2021/05/27 04:14:40;;;;;;;6.18;3.15;;;8.80;99.90;;;;;;5050646;28;20502;-52
2021/05/27 04:17:06;;;;;;;8.83;4.00;;;8.90;99.90;;;;;;5052550;28;20758;-52
2021/05/27 04:19:32;;;;;;;6.80;3.90;;;9.00;99.90;;;;;;5051718;28;20755;-52
2021/05/27 04:21:58;;;;;;;6.68;3.45;;;9.10;99.90;;;;;;5052554;28;20401;-52
2021/05/27 04:24:23;;;;;;;7.20;3.90;;;9.10;99.90;;;;;;5050359;28;20397;-52
2021/05/27 04:26:49;;;;;;;6.15;3.40;;;9.20;99.90;;;;;;5052082;28;20390;-52
2021/05/27 04:29:15;;;;;;;7.13;3.50;;;9.20;99.90;;;;;;5054943;28;20945;-59
2021/05/27 04:31:41;;;;;;;8.00;3.08;;;9.30;99.90;;;;;;5054656;28;20933;-52
2021/05/27 04:34:06;;;;;;;6.30;3.40;;;9.30;99.90;;;;;;5057802;28;20784;-52
2021/05/27 04:36:32;;;;;;;7.43;3.40;;;9.40;99.90;;;;;;5060982;28;20435;-52
2021/05/27 04:38:58;;;;;;;7.13;3.53;;;9.40;99.90;;;;;;5060756;28;20397;-52
2021/05/27 04:41:23;;;;;;;5.90;3.30;;;9.50;99.90;;;;;;5061929;28;20884;-56
2021/05/27 04:43:55;;;;;;;6.93;3.20;;;9.50;99.90;;;;;;5061425;28;20475;-52
2021/05/27 04:46:25;;;;;;;8.40;3.80;;;9.60;99.90;;;;;;5062636;28;20411;-52
2021/05/27 04:48:51;;;;;;;7.07;3.90;;;9.70;99.90;;;;;;5061634;28;20514;-52
2021/05/27 04:51:17;;;;;;;7.35;3.67;;;9.80;99.90;;;;;;5062290;28;20396;-59
2021/05/27 04:53:43;;;;;;;6.97;3.90;;;10.10;99.90;;;;;;5059956;28;20384;-52
2021/05/27 04:56:08;;;;;;;5.50;3.30;;;10.80;99.90;;;;;;5062055;28;20773;-53
2021/05/27 04:58:34;;;;;;;7.10;2.80;;;12.10;99.90;;;;;;5058186;28;20588;-54
2021/05/27 05:00:59;;;;;;;5.60;2.50;;;13.40;99.90;;;;;;5062468;28;20845;-54
2021/05/27 05:03:26;;;;;;;6.30;2.60;;;14.50;99.90;;;;;;5057558;28;20401;-55
2021/05/27 05:05:52;;;;;;;5.50;2.40;;;15.70;99.90;;;;;;5058002;28;20854;-52
2021/05/27 05:08:17;;;;;;;5.60;2.20;;;17.10;99.90;;;;;;5060738;28;20383;-60
2021/05/27 05:10:43;;;;;;;5.70;2.30;;;17.60;99.90;;;;;;5059542;28;20384;-53
2021/05/27 05:13:09;;;;;;;4.97;2.28;;;17.70;99.90;;;;;;5061516;28;20855;-52
2021/05/27 05:15:37;;;;;;;5.25;2.35;;;16.80;99.90;;;;;;5062221;28;20939;-53
2021/05/27 05:18:11;;;;;;;5.03;2.53;;;15.70;99.90;;;;;;5060410;28;20447;-53
2021/05/27 05:20:38;;;;;;;5.55;2.75;;;14.80;99.90;;;;;;5055968;28;20713;-52
2021/05/27 05:23:04;;;;;;;6.72;3.05;;;14.10;99.90;;;;;;5051059;28;20772;-53
2021/05/27 05:25:31;;;;;;;7.97;2.88;;;13.40;99.90;;;;;;5050469;28;20385;-53
2021/05/27 05:27:57;;;;;;;7.22;3.10;;;13.00;99.90;;;;;;5051623;28;20447;-53
2021/05/27 05:30:25;;;;;;;4.70;2.57;;;13.10;99.90;;;;;;5049122;28;20385;-53
2021/05/27 05:32:51;;;;;;;5.90;2.60;;;13.60;99.90;;;;;;5048567;28;20930;-53
2021/05/27 05:35:18;;;;;;;5.30;2.40;;;14.50;99.90;;;;;;5053594;28;20494;-59
2021/05/27 05:37:45;;;;;;;5.87;2.30;;;15.20;99.90;;;;;;5060846;28;20389;-53
2021/05/27 05:40:13;;;;;;;4.80;2.50;;;16.10;99.90;;;;;;5062360;28;20394;-53
2021/05/27 05:42:39;;;;;;;5.40;2.40;;;16.40;99.90;;;;;;5057594;28;20958;-53
2021/05/27 05:45:07;;;;;;;5.82;2.45;;;17.00;99.90;;;;;;5050804;28;20386;-53
2021/05/27 05:47:33;;;;;;;5.10;2.47;;;17.60;99.90;;;;;;5049836;28;20479;-53
2021/05/27 05:49:58;;;;;;;6.32;2.42;;;18.10;99.90;;;;;;5050626;28;20437;-53
2021/05/27 05:52:24;;;;;;;5.60;2.20;;;17.00;99.90;;;;;;5040504;28;20960;-52
2021/05/27 05:54:50;;;;;;;7.10;2.70;;;16.30;99.90;;;;;;5050061;28;20727;-51
2021/05/27 05:57:16;;;;;;;7.63;2.42;;;15.40;99.90;;;;;;5050490;28;20378;-52
2021/05/27 05:59:41;;;;;;;7.50;2.57;;;15.40;99.90;;;;;;5049578;28;20770;-51
2021/05/27 06:02:08;;;;;;;5.10;2.00;;;15.40;99.90;;;;;;5050283;28;20504;-51
2021/05/27 06:04:33;;;;;;;7.20;2.92;;;15.50;99.90;;;;;;5049113;28;20399;-51
2021/05/27 06:06:59;;;;;;;6.30;2.30;;;15.70;99.90;;;;;;5050228;28;20381;-52
2021/05/27 06:09:25;;;;;;;4.83;2.10;;;16.10;99.90;;;;;;5048451;28;20386;-51
2021/05/27 06:11:53;;;;;;;7.85;2.55;;;15.70;99.90;;;;;;5050373;28;20473;-52
2021/05/27 06:14:20;;;;;;;6.20;2.40;;;16.00;99.90;;;;;;5049613;28;20390;-59
2021/05/27 06:16:46;;;;;;;4.70;2.10;;;16.50;99.90;;;;;;5050150;28;20376;-53
2021/05/27 06:19:11;;;;;;;5.67;1.80;;;17.50;99.90;;;;;;5049925;28;20417;-52
2021/05/27 06:21:37;;;;;;;4.40;1.90;;;17.90;99.90;;;;;;5048458;28;20444;-53
2021/05/27 06:24:03;;;;;;;4.60;1.90;;;18.20;99.90;;;;;;5049170;28;20374;-53
2021/05/27 06:26:31;;;;;;;6.05;1.50;;;17.70;99.90;;;;;;5048720;28;20801;-53
2021/05/27 06:28:57;;;;;;;8.60;2.40;;;18.20;99.90;;;;;;5049653;28;20392;-53
2021/05/27 06:31:22;;;;;;;5.17;1.90;;;17.50;99.90;;;;;;5047513;28;20389;-53
2021/05/27 06:33:49;;;;;;;4.88;2.03;;;17.90;99.90;;;;;;5065267;28;20442;-52
2021/05/27 06:36:15;;;;;;;4.88;1.90;;;17.60;99.90;;;;;;5049872;28;20400;-52
2021/05/27 06:38:40;;;;;;;6.80;2.10;;;17.10;99.90;;;;;;5048531;28;20726;-52
2021/05/27 06:41:07;;;;;;;6.63;2.00;;;17.50;99.90;;;;;;5049876;28;20406;-52
2021/05/27 06:43:33;;;;;;;5.40;2.00;;;18.70;99.90;;;;;;5048890;28;20400;-53
2021/05/27 06:45:59;;;;;;;8.70;1.80;;;18.10;99.60;;;;;;5048696;28;20398;-52
2021/05/27 06:48:25;;;;;;;6.97;1.90;;;18.30;99.90;;;;;;5048863;28;20398;-53
2021/05/27 06:50:50;;;;;;;5.60;1.73;;;18.80;97.90;;;;;;5050196;28;20397;-53
2021/05/27 06:53:17;;;;;;;5.10;1.85;;;19.80;96.50;;;;;;5049223;28;20392;-53
2021/05/27 06:55:45;;;;;;;5.73;1.87;;;19.30;95.80;;;;;;5049067;28;20377;-52
2021/05/27 06:58:11;;;;;;;5.05;1.90;;;18.00;97.00;;;;;;5049534;28;20405;-53
2021/05/27 07:00:37;;;;;;;5.00;1.90;;;17.80;97.90;;;;;;5048632;28;20478;-53
2021/05/27 07:03:04;;;;;;;5.63;1.90;;;18.90;97.10;;;;;;5049062;28;20462;-52
2021/05/27 07:05:30;;;;;;;6.95;1.90;;;18.30;97.70;;;;;;5048786;28;20381;-52
2021/05/27 07:07:57;;;;;;;5.68;2.40;;;17.70;98.00;;;;;;5049534;28;20377;-53
2021/05/27 07:10:23;;;;;;;4.68;1.95;;;17.80;98.30;;;;;;5048349;28;20464;-53
2021/05/27 07:12:54;;;;;;;4.80;1.90;;;18.00;97.50;;;;;;5048977;28;20484;-53
2021/05/27 07:15:21;;;;;;;8.10;2.20;;;17.80;96.40;;;;;;5049244;28;20450;-59
2021/05/27 07:17:48;;;;;;;5.43;2.20;;;17.20;97.60;;;;;;5048984;28;20405;-53
2021/05/27 07:20:14;;;;;;;5.00;2.20;;;17.60;99.40;;;;;;5048532;28;20389;-55
2021/05/27 07:22:40;;;;;;;4.40;2.03;;;17.80;96.70;;;;;;5050444;28;20429;-54
2021/05/27 07:25:07;;;;;;;5.65;1.70;;;18.10;96.30;;;;;;5068686;28;20420;-53
2021/05/27 07:27:33;;;;;;;5.50;2.10;;;18.50;95.30;;;;;;5052031;28;20416;-52
2021/05/27 07:29:59;;;;;;;6.30;2.25;;;18.80;94.40;;;;;;5051051;28;20785;-53
2021/05/27 07:32:25;;;;;;;6.20;1.70;;;18.40;94.50;;;;;;5067216;28;20474;-53
2021/05/27 07:34:51;;;;;;;5.03;1.80;;;19.10;94.10;;;;;;5051372;28;20397;-53
2021/05/27 07:37:16;;;;;;;6.40;1.92;;;19.70;93.10;;;;;;5052525;28;20477;-53
2021/05/27 07:39:42;;;;;;;5.68;1.70;;;19.20;93.80;;;;;;5050006;28;20484;-53
2021/05/27 07:42:09;;;;;;;8.60;1.80;;;18.70;93.80;;;;;;5052504;28;20405;-52
2021/05/27 07:44:34;;;;;;;7.90;1.92;;;18.30;94.50;;;;;;5051618;28;20484;-53
2021/05/27 07:47:01;;;;;;;5.83;2.17;;;18.30;94.50;;;;;;5033483;28;20921;-53
2021/05/27 07:49:27;;;;;;;5.70;2.10;;;17.10;95.60;;;;;;5049622;28;20763;-53
2021/05/27 07:51:54;;;;;;;5.78;1.83;;;17.60;95.90;;;;;;5052624;28;20476;-53
2021/05/27 07:54:20;;;;;;;4.80;1.80;;;18.70;93.60;;;;;;5047443;28;20966;-60
2021/05/27 07:56:46;;;;;;;5.40;2.00;;;19.50;92.70;;;;;;5051500;28;20472;-53
2021/05/27 07:59:13;;;;;;;4.57;1.92;;;19.50;90.80;;;;;;5053145;28;20728;-53
2021/05/27 08:01:39;;;;;;;5.55;2.00;;;19.70;90.60;;;;;;5051742;28;20577;-55
2021/05/27 08:04:05;;;;;;;6.13;1.70;;;19.80;90.50;;;;;;5051980;28;20918;-53
2021/05/27 08:06:30;;;;;;;5.73;1.90;;;20.50;89.70;;;;;;5052270;28;20427;-53
2021/05/27 08:08:56;;;;;;;5.40;1.83;;;20.00;90.00;;;;;;5052733;28;20716;-53
2021/05/27 08:11:22;;;;;;;5.00;1.70;;;20.30;87.60;;;;;;5051905;28;20739;-60
2021/05/27 08:13:47;;;;;;;4.90;2.00;;;19.90;88.60;;;;;;5052220;28;20859;-53
2021/05/27 08:16:13;;;;;;;4.70;1.67;;;19.70;88.30;;;;;;5052635;28;20875;-53
2021/05/27 08:18:39;;;;;;;4.60;1.70;;;19.30;87.70;;;;;;5050650;28;20598;-53
2021/05/27 08:21:07;;;;;;;4.40;1.90;;;19.40;88.30;;;;;;5051970;28;20477;-55
2021/05/27 08:23:33;;;;;;;6.20;1.80;;;19.50;90.00;;;;;;5051388;28;20773;-53
2021/05/27 08:25:59;;;;;;;5.23;1.97;;;20.60;87.60;;;;;;5043011;28;20391;-54
2021/05/27 08:28:25;;;;;;;4.77;1.50;;;21.70;85.10;;;;;;5050705;28;20870;-54
2021/05/27 08:30:50;;;;;;;4.50;1.90;;;21.80;80.00;;;;;;5051826;28;20460;-53
2021/05/27 08:33:16;;;;;;;5.40;1.70;;;21.70;78.80;;;;;;5050415;28;20394;-54
2021/05/27 08:35:41;;;;;;;5.20;1.60;;;22.70;77.40;;;;;;5050777;28;20385;-53
2021/05/27 08:38:07;;;;;;;6.20;1.30;;;22.80;71.90;;;;;;5052019;28;20477;-54
2021/05/27 08:40:33;;;;;;;4.90;1.50;;;21.70;72.30;;;;;;5050729;28;20382;-53
2021/05/27 08:42:59;;;;;;;5.20;1.70;;;21.60;75.80;;;;;;5051662;28;20500;-54
2021/05/27 08:45:30;;;;;;;4.53;1.63;;;20.90;78.90;;;;;;5050893;28;20409;-54
2021/05/27 08:47:56;;;;;;;4.77;1.60;;;21.10;77.40;;;;;;5051296;28;20480;-56
2021/05/27 08:50:29;;;;;;;4.63;1.40;;;21.00;76.80;;;;;;5051028;28;20468;-60
2021/05/27 08:52:57;;;;;;;5.85;1.60;;;20.70;72.70;;;;;;5051853;28;20405;-53
2021/05/27 08:55:23;;;;;;;4.55;1.83;;;20.50;77.70;;;;;;5051052;28;20378;-60
2021/05/27 08:57:49;;;;;;;5.10;1.70;;;20.70;79.10;;;;;;5051803;28;20674;-54
2021/05/27 09:00:15;;;;;;;4.28;1.45;;;20.90;75.90;;;;;;5050427;28;20389;-53
2021/05/27 09:02:55;;;;;;;4.68;1.70;;;20.10;76.20;;;;;;5050772;28;21188;-53
2021/05/27 09:05:21;;;;;;;5.18;1.80;;;19.00;81.60;;;;;;5051268;28;20386;-59
2021/05/27 09:07:46;;;;;;;5.57;2.00;;;17.80;87.90;;;;;;5051148;28;20404;-53
2021/05/27 09:10:12;;;;;;;5.53;1.80;;;17.60;89.90;;;;;;5051525;28;20417;-53
2021/05/27 09:12:38;;;;;;;6.10;1.73;;;19.30;85.50;;;;;;5050460;28;20550;-53
2021/05/27 09:15:21;;;;;;;7.70;1.70;;;20.20;81.90;;;;;;5051128;28;20909;-54
2021/05/27 09:17:52;;;;;;;5.07;1.40;;;21.90;78.20;;;;;;5050292;28;20409;-53
2021/05/27 09:20:23;;;;;;;5.45;1.60;;;23.60;71.60;;;;;;5051180;28;20380;-58
2021/05/27 09:23:09;;;;;;;5.50;1.77;;;23.10;70.50;;;;;;5051082;28;20450;-53
2021/05/27 09:25:37;;;;;;;5.60;1.60;;;23.40;68.70;;;;;;5050599;28;20394;-53
2021/05/27 09:28:07;;;;;;;4.70;1.60;;;22.70;69.00;;;;;;5050228;28;20862;-53
2021/05/27 09:30:48;;;;;;;4.88;1.83;;;22.60;68.40;;;;;;5049933;28;20400;-53
2021/05/27 09:33:15;;;;;;;6.25;1.80;;;21.70;72.20;;;;;;5050645;28;20416;-52
2021/05/27 09:35:42;;;;;;;5.30;1.88;;;19.80;72.90;;;;;;5049905;28;20389;-52
2021/05/27 09:38:08;;;;;;;5.50;1.80;;;20.40;75.70;;;;;;5050658;28;20381;-53
2021/05/27 09:40:36;;;;;;;4.60;1.50;;;20.80;73.50;;;;;;5049176;28;20991;-53
2021/05/27 09:43:03;;;;;;;5.15;1.60;;;21.00;73.80;;;;;;5050848;28;20416;-52
2021/05/27 09:45:30;;;;;;;6.00;1.50;;;21.00;73.90;;;;;;5049090;28;20382;-58
2021/05/27 09:47:57;;;;;;;6.65;2.20;;;20.00;75.10;;;;;;5049540;28;20485;-52
2021/05/27 09:50:32;;;;;;;4.70;1.75;;;18.60;78.80;;;;;;5048770;28;20854;-58
2021/05/27 09:53:15;;;;;;;4.97;1.65;;;18.00;83.80;;;;;;5050632;28;20405;-52
2021/05/27 09:55:42;;;;;;;5.10;1.80;;;17.30;88.80;;;;;;5049033;28;20389;-52
2021/05/27 09:58:10;;;;;;;5.20;2.10;;;16.70;91.50;;;;;;5065825;28;20391;-52
2021/05/27 10:00:38;;;;;;;7.30;2.10;;;17.20;90.30;;;;;;5048595;28;20390;-53
2021/05/27 10:03:27;;;;;;;4.93;2.10;;;18.20;89.10;;;;;;5042109;28;20792;-52
2021/05/27 10:05:53;;;;;;;5.60;2.00;;;18.60;87.80;;;;;;5049578;28;20868;-52
2021/05/27 10:08:20;;;;;;;6.40;2.50;;;17.50;90.20;;;;;;5049671;28;20378;-52
2021/05/27 10:10:50;;;;;;;6.30;2.10;;;16.70;92.30;;;;;;5050200;28;20386;-52
2021/05/27 10:13:18;;;;;;;4.60;1.98;;;15.50;93.90;;;;;;5047803;28;20400;-52
2021/05/27 10:15:44;;;;;;;6.78;2.47;;;15.90;95.70;;;;;;5057126;28;20546;-52
2021/05/27 10:18:15;;;;;;;5.55;2.28;;;15.90;97.50;;;;;;5050966;28;20401;-53
2021/05/27 10:20:41;;;;;;;5.93;2.17;;;16.00;96.10;;;;;;5047502;28;20403;-52
2021/05/27 10:23:10;;;;;;;5.93;2.30;;;15.70;97.20;;;;;;5050618;28;20495;-52
2021/05/27 10:25:36;;;;;;;5.65;2.28;;;16.00;97.00;;;;;;5065655;28;20747;-52
2021/05/27 10:28:07;;;;;;;5.75;2.28;;;16.20;96.60;;;;;;5055791;28;20384;-52
2021/05/27 10:30:38;;;;;;;5.43;2.60;;;16.50;96.70;;;;;;5058638;28;20464;-52
2021/05/27 10:33:06;;;;;;;5.57;2.13;;;16.60;97.20;;;;;;5064679;28;20375;-52
2021/05/27 10:35:56;;;;;;;6.00;2.63;;;16.90;96.40;;;;;;5050078;28;20883;-56
2021/05/27 10:38:40;;;;;;;5.30;2.30;;;17.90;95.10;;;;;;5052907;28;20423;-52
2021/05/27 10:41:20;;;;;;;6.10;2.20;;;18.00;93.80;;;;;;5059775;28;20850;-52
2021/05/27 10:44:02;;;;;;;4.97;1.92;;;18.20;94.10;;;;;;5047731;28;20397;-55
2021/05/27 10:46:31;;;;;;;6.05;2.03;;;18.60;93.30;;;;;;5052878;28;20446;-54
2021/05/27 10:48:58;;;;;;;7.18;2.20;;;18.00;93.70;;;;;;5060910;28;20389;-52
2021/05/27 10:51:42;;;;;;;5.30;2.40;;;18.30;94.10;;;;;;5061073;28;20395;-61
2021/05/27 10:54:17;;;;;;;6.00;2.25;;;18.80;93.90;;;;;;5052571;28;20431;-53
2021/05/27 10:56:49;;;;;;;6.30;2.10;;;19.10;93.20;;;;;;5060501;28;20401;-53
2021/05/27 10:59:16;;;;;;;6.00;1.80;;;18.90;91.70;;;;;;5047927;28;20481;-53
2021/05/27 11:01:42;;;;;;;7.00;2.20;;;18.80;92.00;;;;;;5053585;28;20413;-53
2021/05/27 11:04:22;;;;;;;5.45;1.90;;;18.70;92.20;;;;;;5068911;28;20923;-53
2021/05/27 11:06:49;;;;;;;6.68;2.15;;;18.40;91.60;;;;;;5059018;28;20378;-54
2021/05/27 11:09:20;;;;;;;7.65;2.83;;;18.00;91.60;;;;;;5061113;28;20386;-54
2021/05/27 11:12:09;;;;;;;4.88;2.20;;;18.20;92.70;;;;;;5048916;28;20449;-57
2021/05/27 11:14:38;;;;;;;7.60;2.22;;;18.40;92.80;;;;;;5051398;28;20471;-53
2021/05/27 11:17:04;;;;;;;5.72;2.00;;;18.50;92.10;;;;;;5063346;28;20383;-53
2021/05/27 11:22:36;;;;;;;5.80;1.90;;;18.60;93.10;;;;;;5050366;28;20428;-58
2021/05/27 11:25:08;;;;;;;4.70;1.90;;;18.40;91.50;;;;;;5049532;28;20401;-52
2021/05/27 11:28:03;;;;;;;6.80;2.00;;;18.10;91.90;;;;;;5046605;28;20397;-53
2021/05/27 11:30:29;;;;;;;6.40;2.28;;;18.10;93.00;;;;;;5038687;28;20432;-57
2021/05/27 11:33:05;;;;;;;5.80;2.00;;;18.50;92.30;;;;;;5049654;28;20409;-54
2021/05/27 11:35:43;;;;;;;7.60;1.90;;;18.60;92.00;;;;;;5051096;28;20416;-55
2021/05/27 11:38:18;;;;;;;6.10;1.98;;;18.60;92.70;;;;;;5044796;28;20481;-54
2021/05/27 11:40:53;;;;;;;7.00;1.92;;;19.10;91.80;;;;;;5047258;28;20481;-53
2021/05/27 11:43:35;;;;;;;4.85;1.85;;;19.10;91.60;;;;;;5041563;28;20441;-53
2021/05/27 11:46:06;;;;;;;6.63;1.92;;;19.20;90.50;;;;;;5049703;28;20404;-53
2021/05/27 11:48:40;;;;;;;5.22;1.80;;;18.60;90.40;;;;;;5063427;28;20853;-53
2021/05/27 11:51:12;;;;;;;5.30;2.00;;;18.00;90.60;;;;;;5051788;28;20878;-57
2021/05/27 11:53:46;;;;;;;5.07;2.00;;;18.30;91.30;;;;;;5043073;28;20793;-52
2021/05/27 11:56:13;;;;;;;4.45;1.90;;;18.30;91.00;;;;;;5059935;28;20414;-52
2021/05/27 11:58:41;;;;;;;5.87;2.13;;;18.50;91.10;;;;;;5049905;28;20439;-53
2021/05/27 12:01:22;;;;;;;6.00;2.00;;;18.40;90.80;;;;;;5058478;28;20393;-54
2021/05/27 12:04:13;;;;;;;9.30;2.20;;;19.00;90.80;;;;;;5063628;28;20405;-52
2021/05/27 12:06:50;;;;;;;4.38;1.88;;;19.40;91.10;;;;;;5047653;28;20845;-53
2021/05/27 12:09:26;;;;;;;6.00;2.17;;;19.30;90.80;;;;;;5052195;28;20382;-52
2021/05/27 12:11:52;;;;;;;6.82;1.90;;;19.10;91.10;;;;;;5052039;28;20471;-52
2021/05/27 12:14:18;;;;;;;5.63;2.10;;;19.20;92.20;;;;;;5052080;28;20950;-52
2021/05/27 12:16:44;;;;;;;5.57;2.20;;;19.30;91.10;;;;;;5051616;28;20386;-53
2021/05/27 12:19:13;;;;;;;7.87;2.33;;;19.00;91.20;;;;;;5051902;28;20417;-53
2021/05/27 12:21:59;;;;;;;4.68;2.00;;;19.40;90.10;;;;;;5051123;28;20418;-53
2021/05/27 12:24:27;;;;;;;5.05;1.77;;;19.60;88.30;;;;;;5050294;28;20402;-60
2021/05/27 12:26:54;;;;;;;4.47;1.98;;;21.50;90.20;;;;;;5052259;28;20464;-53
2021/05/27 12:29:20;;;;;;;4.85;1.90;;;20.30;90.30;;;;;;5052478;28;20386;-53
2021/05/27 12:31:46;;;;;;;4.80;2.10;;;20.10;90.30;;;;;;5051225;28;20835;-53
2021/05/27 12:34:15;;;;;;;5.60;1.90;;;19.90;86.60;;;;;;5052474;28;20439;-53
2021/05/27 12:37:13;;;;;;;4.70;1.80;;;19.40;87.90;;;;;;5051076;28;20897;-53
2021/05/27 12:39:39;;;;;;;4.78;1.90;;;19.50;88.50;;;;;;5007066;28;20879;-54
2021/05/27 12:42:08;;;;;;;5.88;2.13;;;19.00;88.80;;;;;;5051981;28;20413;-53
2021/05/27 12:44:41;;;;;;;5.70;2.00;;;18.50;90.40;;;;;;5050884;28;20468;-52
2021/05/27 12:47:15;;;;;;;5.65;1.90;;;18.20;91.30;;;;;;5051794;28;20384;-52
2021/05/27 12:49:41;;;;;;;5.60;2.10;;;17.90;91.70;;;;;;5050988;28;20459;-57
2021/05/27 12:52:07;;;;;;;4.80;2.23;;;18.00;91.80;;;;;;5051722;28;20863;-52
2021/05/27 12:54:33;;;;;;;6.45;2.10;;;18.00;92.20;;;;;;5050664;28;20485;-53
2021/05/27 12:57:10;;;;;;;6.00;2.00;;;20.20;93.00;;;;;;5033823;28;20385;-52
2021/05/27 12:59:38;;;;;;;4.95;2.08;;;18.00;92.60;;;;;;5051123;28;20716;-54
2021/05/27 13:02:06;;;;;;;8.07;2.20;;;17.60;91.60;;;;;;5050986;28;20496;-53
2021/05/27 13:04:37;;;;;;;6.30;2.03;;;17.40;92.00;;;;;;5050552;28;20383;-52
2021/05/27 13:07:12;;;;;;;4.60;1.90;;;17.20;93.50;;;;;;5051299;28;20400;-53
2021/05/27 13:09:48;;;;;;;5.28;1.80;;;17.40;94.00;;;;;;5050415;28;20727;-52